createdAt,value
2024-01-24T00:00:09.751Z,2.37
2024-01-24T00:02:42.563Z,2.63
2024-01-24T00:05:11.331Z,2.23
2024-01-24T00:07:40.149Z,2.13
2024-01-24T00:10:10.637Z,1.87
2024-01-24T00:12:39.495Z,2.40
2024-01-24T00:15:09.022Z,2.47
2024-01-24T00:17:37.668Z,1.80
2024-01-24T00:20:10.311Z,1.70
2024-01-24T00:22:39.063Z,1.63
2024-01-24T00:25:08.213Z,1.70
2024-01-24T00:27:37.014Z,1.47
2024-01-24T00:30:07.322Z,1.63
2024-01-24T00:32:35.926Z,1.40
2024-01-24T00:35:05.081Z,1.57
2024-01-24T00:37:35.146Z,1.10
2024-01-24T00:40:04.379Z,1.77
2024-01-24T00:42:33.055Z,1.37
2024-01-24T00:45:00.864Z,1.37
2024-01-24T00:47:29.865Z,1.10
2024-01-24T00:49:58.622Z,0.90
2024-01-24T00:52:27.201Z,0.93
2024-01-24T00:54:57.227Z,1.00
2024-01-24T00:57:25.960Z,0.90
2024-01-24T00:59:54.658Z,0.80
2024-01-24T01:02:23.356Z,1.00
2024-01-24T01:04:52.120Z,0.80
2024-01-24T01:07:20.835Z,1.13
2024-01-24T01:09:49.579Z,1.00
2024-01-24T01:12:20.179Z,1.17
2024-01-24T01:14:49.495Z,1.30
2024-01-24T01:17:18.088Z,1.00
2024-01-24T01:19:46.706Z,0.97
2024-01-24T01:22:15.618Z,1.00
2024-01-24T01:24:44.544Z,1.00
2024-01-24T01:27:13.414Z,0.80
2024-01-24T01:29:43.445Z,1.40
2024-01-24T01:32:12.090Z,0.90
2024-01-24T01:34:40.892Z,1.43
2024-01-24T01:37:09.660Z,1.20
2024-01-24T01:39:38.606Z,1.70
2024-01-24T01:42:07.373Z,1.60
2024-01-24T01:44:48.313Z,1.40
2024-01-24T01:47:18.426Z,1.47
2024-01-24T01:49:47.619Z,1.30
2024-01-24T01:52:17.803Z,1.63
2024-01-24T01:54:47.850Z,1.20
2024-01-24T01:57:16.847Z,1.33
2024-01-24T01:59:46.567Z,1.50
2024-01-24T02:02:17.639Z,1.40
2024-01-24T02:04:46.787Z,1.57
2024-01-24T02:09:45.699Z,1.70
2024-01-24T02:12:14.445Z,1.43
2024-01-24T02:14:43.314Z,1.57
2024-01-24T02:17:12.089Z,1.53
2024-01-24T02:19:43.276Z,1.17
2024-01-24T02:22:12.018Z,1.47
2024-01-24T02:24:41.986Z,1.83
2024-01-24T02:27:11.243Z,1.90
2024-01-24T02:29:39.964Z,1.80
2024-01-24T02:32:08.938Z,1.90
2024-01-24T02:34:37.694Z,1.43
2024-01-24T02:37:06.502Z,1.80
2024-01-24T02:39:35.190Z,1.80
2024-01-24T02:42:06.109Z,1.60
2024-01-24T02:44:34.862Z,1.87
2024-01-24T02:47:03.637Z,2.10
2024-01-24T02:49:32.885Z,1.90
2024-01-24T02:52:03.185Z,1.70
2024-01-24T02:54:32.153Z,1.77
2024-01-24T02:57:00.876Z,1.77
2024-01-24T02:59:31.186Z,2.30
2024-01-24T03:01:59.727Z,2.13
2024-01-24T03:04:28.494Z,2.23
2024-01-24T03:06:57.363Z,2.23
2024-01-24T03:09:26.124Z,3.27
2024-01-24T03:11:54.800Z,2.70
2024-01-24T03:14:23.448Z,3.20
2024-01-24T03:16:53.558Z,2.93
2024-01-24T03:19:22.304Z,3.13
2024-01-24T03:21:51.116Z,3.13
2024-01-24T03:24:19.882Z,3.20
2024-01-24T03:26:48.486Z,2.60
2024-01-24T03:29:17.336Z,3.13
2024-01-24T03:31:46.192Z,2.50
2024-01-24T03:34:16.274Z,2.30
2024-01-24T03:36:45.048Z,2.80
2024-01-24T03:39:13.872Z,2.60
2024-01-24T03:41:42.486Z,2.23
2024-01-24T03:44:11.288Z,1.83
2024-01-24T03:46:40.025Z,2.10
2024-01-24T03:49:08.859Z,1.70
2024-01-24T03:51:38.945Z,1.90
2024-01-24T03:54:07.762Z,1.60
2024-01-24T03:56:36.387Z,1.50
2024-01-24T03:59:05.154Z,5.20
2024-01-24T04:01:33.959Z,2.50
2024-01-24T04:04:02.766Z,2.47
2024-01-24T04:06:31.548Z,1.80
2024-01-24T04:09:01.755Z,1.60
2024-01-24T04:11:30.353Z,1.70
2024-01-24T04:13:59.031Z,1.60
2024-01-24T04:16:27.768Z,1.57
2024-01-24T04:18:56.599Z,1.87
2024-01-24T04:21:25.383Z,1.30
2024-01-24T04:23:54.051Z,1.20
2024-01-24T04:26:24.391Z,1.67
2024-01-24T04:28:53.353Z,1.20
2024-01-24T04:31:22.013Z,1.30
2024-01-24T04:33:50.735Z,1.13
2024-01-24T04:36:19.422Z,1.17
2024-01-24T04:38:48.137Z,1.40
2024-01-24T04:41:16.764Z,1.60
2024-01-24T04:43:46.777Z,1.40
2024-01-24T04:46:16.138Z,1.80
2024-01-24T04:48:46.290Z,1.27
2024-01-24T04:51:15.138Z,1.70
2024-01-24T04:53:43.751Z,1.60
2024-01-24T04:56:12.846Z,2.00
2024-01-24T04:58:42.890Z,1.60
2024-01-24T05:01:13.670Z,1.50
2024-01-24T05:03:42.538Z,1.90
2024-01-24T05:06:11.912Z,1.60
2024-01-24T05:08:41.362Z,2.00
2024-01-24T05:11:10.136Z,2.10
2024-01-24T05:13:38.981Z,2.53
2024-01-24T05:16:08.086Z,2.13
2024-01-24T05:18:38.228Z,2.20
2024-01-24T05:21:06.970Z,2.23
2024-01-24T05:23:35.675Z,2.47
2024-01-24T05:26:04.602Z,2.63
2024-01-24T05:28:33.249Z,2.07
2024-01-24T05:31:01.962Z,2.47
2024-01-24T05:33:30.827Z,2.47
2024-01-24T05:36:00.955Z,2.73
2024-01-24T05:38:30.968Z,3.43
2024-01-24T05:40:59.606Z,3.00
2024-01-24T05:43:28.332Z,2.13
2024-01-24T05:45:57.207Z,2.70
2024-01-24T05:48:25.929Z,2.20
2024-01-24T05:50:54.732Z,2.23
2024-01-24T05:53:25.345Z,2.63
2024-01-24T05:55:54.024Z,3.50
2024-01-24T05:58:22.728Z,2.70
2024-01-24T06:00:54.730Z,2.67
2024-01-24T06:03:23.542Z,2.53
2024-01-24T06:05:52.943Z,3.13
2024-01-24T06:08:21.733Z,2.47
2024-01-24T06:10:52.266Z,3.00
2024-01-24T06:13:20.897Z,2.17
2024-01-24T06:15:49.738Z,3.50
2024-01-24T06:18:18.686Z,2.17
2024-01-24T06:20:48.355Z,3.27
2024-01-24T06:23:17.301Z,3.37
2024-01-24T06:25:46.072Z,2.27
2024-01-24T06:28:16.157Z,2.10
2024-01-24T06:30:44.900Z,2.90
2024-01-24T06:33:16.013Z,2.97
2024-01-24T06:35:44.730Z,3.13
2024-01-24T06:38:14.147Z,2.73
2024-01-24T06:40:42.975Z,2.50
2024-01-24T06:43:13.660Z,3.13
2024-01-24T06:45:43.921Z,3.20
2024-01-24T06:48:12.590Z,3.97
2024-01-24T06:50:41.463Z,3.23
2024-01-24T06:53:11.925Z,3.87
2024-01-24T06:55:40.668Z,3.23
2024-01-24T06:58:10.099Z,4.13
2024-01-24T07:00:38.977Z,3.00
2024-01-24T07:03:09.151Z,3.67
2024-01-24T07:05:38.042Z,4.47
2024-01-24T07:08:07.549Z,4.03
2024-01-24T07:10:36.296Z,4.10
2024-01-24T07:13:06.201Z,5.13
2024-01-24T07:15:34.941Z,3.90
2024-01-24T07:18:04.713Z,4.70
2024-01-24T07:20:34.849Z,3.00
2024-01-24T07:23:03.830Z,3.83
2024-01-24T07:25:32.538Z,4.67
2024-01-24T07:28:01.159Z,4.43
2024-01-24T07:30:29.961Z,4.57
2024-01-24T07:32:58.690Z,4.40
2024-01-24T07:35:27.313Z,4.13
2024-01-24T07:37:57.476Z,4.77
2024-01-24T07:40:27.048Z,4.70
2024-01-24T07:42:56.472Z,4.90
2024-01-24T07:45:26.649Z,4.07
2024-01-24T07:47:55.448Z,4.80
2024-01-24T07:50:24.587Z,5.70
2024-01-24T07:52:53.430Z,3.63
2024-01-24T07:55:28.687Z,4.10
2024-01-24T07:58:06.265Z,5.13
2024-01-24T08:00:35.839Z,4.07
2024-01-24T08:03:05.633Z,4.37
2024-01-24T08:05:34.348Z,4.63
2024-01-24T08:08:05.305Z,4.90
2024-01-24T08:10:35.871Z,4.27
2024-01-24T08:13:04.773Z,4.73
2024-01-24T08:15:33.807Z,3.70
2024-01-24T08:18:02.832Z,6.73
2024-01-24T08:20:31.535Z,4.60
2024-01-24T08:23:00.385Z,4.37
2024-01-24T08:25:29.048Z,3.47
2024-01-24T08:27:59.296Z,4.80
2024-01-24T08:30:28.089Z,3.83
2024-01-24T08:32:56.986Z,5.67
2024-01-24T08:35:25.773Z,5.30
2024-01-24T08:37:54.526Z,3.67
2024-01-24T08:40:23.291Z,2.90
2024-01-24T08:42:52.244Z,3.90
2024-01-24T08:45:22.693Z,4.93
2024-01-24T08:47:52.485Z,5.00
2024-01-24T08:50:23.446Z,5.40
2024-01-24T08:52:52.878Z,4.80
2024-01-24T08:55:22.167Z,5.00
2024-01-24T08:57:51.291Z,5.13
2024-01-24T09:00:22.121Z,4.70
2024-01-24T09:02:51.123Z,4.20
2024-01-24T09:05:22.281Z,5.37
2024-01-24T09:07:51.098Z,4.67
2024-01-24T09:10:19.988Z,5.03
2024-01-24T09:12:49.611Z,4.53
2024-01-24T09:15:18.615Z,4.40
2024-01-24T09:17:49.340Z,4.67
2024-01-24T09:20:19.443Z,5.17
2024-01-24T09:22:48.560Z,5.00
2024-01-24T09:25:17.911Z,5.50
2024-01-24T09:27:47.283Z,4.80
2024-01-24T09:30:16.651Z,4.03
2024-01-24T09:32:45.576Z,4.73
2024-01-24T09:35:16.069Z,4.83
2024-01-24T09:37:45.282Z,4.33
2024-01-24T09:40:17.516Z,5.10
2024-01-24T09:42:47.221Z,6.00
2024-01-24T09:45:19.229Z,5.07
2024-01-24T09:47:49.868Z,5.33
2024-01-24T09:50:22.889Z,4.63
2024-01-24T09:52:55.500Z,5.47
2024-01-24T09:55:25.289Z,4.80
2024-01-24T09:57:54.173Z,4.60
2024-01-24T10:00:23.125Z,4.67
2024-01-24T10:02:52.608Z,5.70
2024-01-24T10:05:22.132Z,5.23
2024-01-24T10:07:52.057Z,5.50
2024-01-24T10:10:20.740Z,4.93
2024-01-24T10:12:49.741Z,4.93
2024-01-24T10:15:19.405Z,4.57
2024-01-24T10:17:48.553Z,5.07
2024-01-24T10:20:17.396Z,6.40
2024-01-24T10:22:47.823Z,5.77
2024-01-24T10:25:18.888Z,5.50
2024-01-24T10:27:47.833Z,5.00
2024-01-24T10:30:17.331Z,5.13
2024-01-24T10:32:48.492Z,5.17
2024-01-24T10:35:18.182Z,4.90
2024-01-24T10:37:49.000Z,5.50
2024-01-24T10:40:18.270Z,6.00
2024-01-24T10:42:49.563Z,6.37
2024-01-24T10:45:21.853Z,4.73
2024-01-24T10:47:52.817Z,5.33
2024-01-24T10:50:23.009Z,5.90
2024-01-24T10:52:55.074Z,5.47
2024-01-24T10:55:24.715Z,4.47
2024-01-24T10:57:55.698Z,6.20
2024-01-24T11:00:26.896Z,4.33
2024-01-24T11:02:55.875Z,5.17
2024-01-24T11:05:31.657Z,5.43
2024-01-24T11:08:06.215Z,5.43
2024-01-24T11:10:38.727Z,4.83
2024-01-24T11:13:08.283Z,4.63
2024-01-24T11:15:37.992Z,4.50
2024-01-24T11:18:28.206Z,4.83
2024-01-24T11:21:00.334Z,4.33
2024-01-24T11:23:39.991Z,7.07
2024-01-24T11:26:11.137Z,5.13
2024-01-24T11:28:40.648Z,4.57
2024-01-24T11:31:10.217Z,5.10
2024-01-24T11:33:47.615Z,5.53
2024-01-24T11:36:16.584Z,5.13
2024-01-24T11:38:47.163Z,4.37
2024-01-24T11:41:27.841Z,5.53
2024-01-24T11:43:58.679Z,6.30
2024-01-24T11:46:28.698Z,5.20
2024-01-24T11:49:08.118Z,5.43
2024-01-24T11:51:37.541Z,5.37
2024-01-24T11:54:07.813Z,4.70
2024-01-24T11:56:37.592Z,4.80
2024-01-24T11:59:06.292Z,4.87
2024-01-24T12:01:35.305Z,4.93
2024-01-24T12:04:05.455Z,5.03
2024-01-24T12:06:36.937Z,4.83
2024-01-24T12:09:09.426Z,4.63
2024-01-24T12:11:38.135Z,4.97
2024-01-24T12:14:06.946Z,5.30
2024-01-24T12:16:39.599Z,5.03
2024-01-24T12:19:10.377Z,3.93
2024-01-24T12:21:39.965Z,4.87
2024-01-24T12:24:10.790Z,4.33
2024-01-24T12:26:42.006Z,4.37
2024-01-24T12:29:11.313Z,4.97
2024-01-24T12:31:42.555Z,4.63
2024-01-24T12:34:11.638Z,4.53
2024-01-24T12:36:44.426Z,5.10
2024-01-24T12:39:14.606Z,4.70
2024-01-24T12:41:43.619Z,4.73
2024-01-24T12:44:12.524Z,4.73
2024-01-24T12:46:41.688Z,3.93
2024-01-24T12:49:10.671Z,4.60
2024-01-24T12:51:41.508Z,3.93
2024-01-24T12:54:10.399Z,4.30
2024-01-24T12:56:40.566Z,3.80
2024-01-24T12:59:09.715Z,3.80
2024-01-24T13:01:38.595Z,3.63
2024-01-24T13:04:07.590Z,4.03
2024-01-24T13:06:37.878Z,4.83
2024-01-24T13:09:07.313Z,4.63
2024-01-24T13:11:36.126Z,3.27
2024-01-24T13:14:06.227Z,4.40
2024-01-24T13:16:36.028Z,3.50
2024-01-24T13:19:05.214Z,3.90
2024-01-24T13:21:34.046Z,4.00
2024-01-24T13:24:04.682Z,4.27
2024-01-24T13:26:33.518Z,4.30
2024-01-24T13:29:02.628Z,3.43
2024-01-24T13:31:34.095Z,4.40
2024-01-24T13:34:03.245Z,4.60
2024-01-24T13:36:33.006Z,4.50
2024-01-24T13:39:01.973Z,4.07
2024-01-24T13:41:30.783Z,4.07
2024-01-24T13:43:59.685Z,4.10
2024-01-24T13:46:28.421Z,4.10
2024-01-24T13:48:59.735Z,5.33
2024-01-24T13:51:38.676Z,5.23
2024-01-24T13:54:12.012Z,4.33
2024-01-24T13:56:40.708Z,4.90
2024-01-24T13:59:10.623Z,5.73
2024-01-24T14:01:45.236Z,4.73
2024-01-24T14:04:16.648Z,3.93
2024-01-24T14:06:46.392Z,5.60
2024-01-24T14:09:15.819Z,6.23
2024-01-24T14:11:45.370Z,4.13
2024-01-24T14:14:14.127Z,4.87
2024-01-24T14:16:42.742Z,4.93
2024-01-24T14:19:12.283Z,4.67
2024-01-24T14:21:42.693Z,5.30
2024-01-24T14:24:11.491Z,4.73
2024-01-24T14:26:40.284Z,5.47
2024-01-24T14:29:09.435Z,5.10
2024-01-24T14:31:39.203Z,5.63
2024-01-24T14:34:08.183Z,5.93
2024-01-24T14:36:37.827Z,7.60
2024-01-24T14:39:09.027Z,6.13
2024-01-24T14:41:38.246Z,7.07
2024-01-24T14:44:07.044Z,6.93
2024-01-24T14:46:35.769Z,7.20
2024-01-24T14:49:04.730Z,5.20
2024-01-24T14:51:33.445Z,5.13
2024-01-24T14:54:02.255Z,5.60
2024-01-24T14:56:32.483Z,5.73
2024-01-24T14:59:02.410Z,5.90
2024-01-24T15:01:31.289Z,8.13
2024-01-24T15:04:00.221Z,6.80
2024-01-24T15:06:29.198Z,6.60
2024-01-24T15:08:57.961Z,6.47
2024-01-24T15:11:26.694Z,7.57
2024-01-24T15:13:56.674Z,7.47
2024-01-24T15:16:25.921Z,6.53
2024-01-24T15:18:55.554Z,5.20
2024-01-24T15:21:24.310Z,7.70
2024-01-24T15:23:53.751Z,5.13
2024-01-24T15:26:22.473Z,6.80
2024-01-24T15:28:51.296Z,7.80
2024-01-24T15:31:21.422Z,6.03
2024-01-24T15:33:51.152Z,6.13
2024-01-24T15:36:21.019Z,5.70
2024-01-24T15:38:52.095Z,5.33
2024-01-24T15:41:20.986Z,5.43
2024-01-24T15:43:49.756Z,6.23
2024-01-24T15:46:21.862Z,6.20
2024-01-24T15:48:52.071Z,7.07
2024-01-24T15:51:20.945Z,6.63
2024-01-24T15:53:50.101Z,6.47
2024-01-24T15:56:19.861Z,6.97
2024-01-24T15:58:48.579Z,6.40
2024-01-24T16:01:17.450Z,7.57
2024-01-24T16:03:47.830Z,6.47
2024-01-24T16:06:16.582Z,6.23
2024-01-24T16:08:46.323Z,6.07
2024-01-24T16:11:15.115Z,6.03
2024-01-24T16:13:44.466Z,6.00
2024-01-24T16:16:17.312Z,6.40
2024-01-24T16:18:49.450Z,6.00
2024-01-24T16:21:19.528Z,7.00
2024-01-24T16:23:48.391Z,5.63
2024-01-24T16:26:17.183Z,5.17
2024-01-24T16:28:45.917Z,5.93
2024-01-24T16:31:14.750Z,6.87
2024-01-24T16:33:43.622Z,6.90
2024-01-24T16:36:28.437Z,6.83
2024-01-24T16:39:01.985Z,5.23
2024-01-24T16:41:31.880Z,6.13
2024-01-24T16:44:01.811Z,6.00
2024-01-24T16:46:30.913Z,6.93
2024-01-24T16:48:59.759Z,5.60
2024-01-24T16:51:29.890Z,5.80
2024-01-24T16:53:58.775Z,5.93
2024-01-24T16:56:27.412Z,6.13
2024-01-24T16:58:56.080Z,6.63
2024-01-24T17:01:25.045Z,6.83
2024-01-24T17:03:53.865Z,5.67
2024-01-24T17:06:22.672Z,5.90
2024-01-24T17:08:52.700Z,7.97
2024-01-24T17:11:21.390Z,6.07
2024-01-24T17:13:50.102Z,5.67
2024-01-24T17:16:18.715Z,5.50
2024-01-24T17:18:47.566Z,6.33
2024-01-24T17:21:16.495Z,5.00
2024-01-24T17:23:46.598Z,5.07
2024-01-24T17:26:17.278Z,4.80
2024-01-24T17:28:46.588Z,5.03
2024-01-24T17:31:15.676Z,5.40
2024-01-24T17:33:44.646Z,4.50
2024-01-24T17:36:13.331Z,5.07
2024-01-24T17:38:42.053Z,6.10
2024-01-24T17:41:10.803Z,4.00
2024-01-24T17:43:40.804Z,3.90
2024-01-24T17:46:09.626Z,4.60
2024-01-24T17:48:40.389Z,5.73
2024-01-24T17:51:09.516Z,4.33
2024-01-24T17:53:38.205Z,5.03
2024-01-24T17:56:07.911Z,3.90
2024-01-24T17:58:37.125Z,5.17
2024-01-24T18:01:07.789Z,5.20
2024-01-24T18:03:36.840Z,5.10
2024-01-24T18:06:06.540Z,6.53
2024-01-24T18:08:35.224Z,5.73
2024-01-24T18:11:03.965Z,5.63
2024-01-24T18:13:32.653Z,6.77
2024-01-24T18:16:01.566Z,5.97
2024-01-24T18:18:31.959Z,5.73
2024-01-24T18:21:00.892Z,6.20
2024-01-24T18:23:30.030Z,5.97
2024-01-24T18:25:58.706Z,4.93
2024-01-24T18:28:28.797Z,7.83
2024-01-24T18:30:58.331Z,6.00
2024-01-24T18:33:27.319Z,6.73
2024-01-24T18:35:57.798Z,5.67
2024-01-24T18:38:26.541Z,5.93
2024-01-24T18:40:55.193Z,5.33
2024-01-24T18:43:23.906Z,5.73
2024-01-24T18:45:52.928Z,5.43
2024-01-24T18:48:22.109Z,5.57
2024-01-24T18:50:50.850Z,5.83
2024-01-24T18:53:21.241Z,4.80
2024-01-24T18:55:49.926Z,4.70
2024-01-24T18:58:19.126Z,5.00
2024-01-24T19:00:49.172Z,5.73
2024-01-24T19:03:26.301Z,4.27
2024-01-24T19:05:55.428Z,5.93
2024-01-24T19:08:25.606Z,6.07
2024-01-24T19:10:54.724Z,5.70
2024-01-24T19:13:25.205Z,5.33
2024-01-24T19:15:57.574Z,4.87
2024-01-24T19:18:27.870Z,5.50
2024-01-24T19:20:56.815Z,6.03
2024-01-24T19:23:27.807Z,5.37
2024-01-24T19:25:57.107Z,4.47
2024-01-24T19:28:26.052Z,4.87
2024-01-24T19:30:54.920Z,4.97
2024-01-24T19:33:23.591Z,4.80
2024-01-24T19:35:52.296Z,5.13
2024-01-24T19:38:21.141Z,4.37
2024-01-24T19:40:51.548Z,5.47
2024-01-24T19:43:21.780Z,4.47
2024-01-24T19:45:52.307Z,3.97
2024-01-24T19:48:21.831Z,4.00
2024-01-24T19:50:50.873Z,4.80
2024-01-24T19:53:23.784Z,4.63
2024-01-24T19:56:00.345Z,3.73
2024-01-24T19:58:29.069Z,4.13
2024-01-24T20:00:59.561Z,3.30
2024-01-24T20:03:28.375Z,5.20
2024-01-24T20:05:57.055Z,5.13
2024-01-24T20:08:25.741Z,5.07
2024-01-24T20:10:54.402Z,4.53
2024-01-24T20:13:24.528Z,5.87
2024-01-24T20:15:56.440Z,5.03
2024-01-24T20:18:27.454Z,5.93
2024-01-24T20:20:56.443Z,5.93
2024-01-24T20:23:27.259Z,4.90
2024-01-24T20:25:57.168Z,4.57
2024-01-24T20:28:27.146Z,5.03
2024-01-24T20:30:55.830Z,5.67
2024-01-24T20:33:24.831Z,4.90
2024-01-24T20:35:54.440Z,4.93
2024-01-24T20:38:24.410Z,4.73
2024-01-24T20:40:53.002Z,5.10
2024-01-24T20:43:21.701Z,5.50
2024-01-24T20:45:51.886Z,4.47
2024-01-24T20:48:20.626Z,5.53
2024-01-24T20:50:49.345Z,4.83
2024-01-24T20:53:19.308Z,4.97
2024-01-24T20:55:48.071Z,5.13
2024-01-24T20:58:15.755Z,4.93
2024-01-24T21:00:44.693Z,4.43
2024-01-24T21:03:15.252Z,4.83
2024-01-24T21:05:44.786Z,5.50
2024-01-24T21:08:14.048Z,4.47
2024-01-24T21:10:49.092Z,3.97
2024-01-24T21:13:24.932Z,4.83
2024-01-24T21:15:53.675Z,4.07
2024-01-24T21:18:24.145Z,4.00
2024-01-24T21:20:53.170Z,4.80
2024-01-24T21:23:22.055Z,4.30
2024-01-24T21:25:50.837Z,4.40
2024-01-24T21:28:19.484Z,3.80
2024-01-24T21:30:48.191Z,4.37
2024-01-24T21:33:17.073Z,4.97
2024-01-24T21:35:47.480Z,4.67
2024-01-24T21:38:16.327Z,4.63
2024-01-24T21:40:45.029Z,5.30
2024-01-24T21:43:13.857Z,4.33
2024-01-24T21:45:42.789Z,4.90
2024-01-24T21:48:11.504Z,4.63
2024-01-24T21:50:40.649Z,4.60
2024-01-24T21:53:11.261Z,4.50
2024-01-24T21:55:40.285Z,4.43
2024-01-24T21:58:09.428Z,4.53
2024-01-24T22:00:38.671Z,3.73
2024-01-24T22:03:08.063Z,4.00
2024-01-24T22:05:36.757Z,3.80
2024-01-24T22:08:07.881Z,4.30
2024-01-24T22:10:38.058Z,4.47
2024-01-24T22:13:06.827Z,5.20
2024-01-24T22:15:35.573Z,3.87
2024-01-24T22:18:04.788Z,4.37
2024-01-24T22:20:33.525Z,4.27
2024-01-24T22:23:02.212Z,4.80
2024-01-24T22:25:30.948Z,4.47
2024-01-24T22:28:01.070Z,3.70
2024-01-24T22:30:29.919Z,4.17
2024-01-24T22:32:59.402Z,5.03
2024-01-24T22:35:28.259Z,4.40
2024-01-24T22:37:58.361Z,5.50
2024-01-24T22:40:27.302Z,4.20
2024-01-24T22:42:56.005Z,5.30
2024-01-24T22:45:26.325Z,4.67
2024-01-24T22:47:56.146Z,4.90
2024-01-24T22:50:25.234Z,4.30
2024-01-24T22:52:54.014Z,4.30
2024-01-24T22:55:22.756Z,4.97
2024-01-24T22:57:51.897Z,4.60
2024-01-24T23:00:25.018Z,4.20
2024-01-24T23:02:53.720Z,4.37
2024-01-24T23:05:22.403Z,4.43
2024-01-24T23:07:51.092Z,6.70
2024-01-24T23:10:20.061Z,4.37
2024-01-24T23:12:48.923Z,4.77
2024-01-24T23:15:17.690Z,5.20
2024-01-24T23:17:48.079Z,4.10
2024-01-24T23:20:17.070Z,5.03
2024-01-24T23:22:45.915Z,4.43
2024-01-24T23:25:14.890Z,4.50
2024-01-24T23:27:43.793Z,3.83
2024-01-24T23:30:13.286Z,3.97
2024-01-24T23:32:42.770Z,6.13
2024-01-24T23:35:13.111Z,5.80
2024-01-24T23:37:42.093Z,4.77
2024-01-24T23:40:12.313Z,4.53
2024-01-24T23:42:41.171Z,4.63
2024-01-24T23:45:10.809Z,3.97
2024-01-24T23:47:39.631Z,4.53
2024-01-24T23:50:09.820Z,4.40
2024-01-24T23:52:40.057Z,4.53
2024-01-24T23:55:09.899Z,4.40
2024-01-24T23:57:38.695Z,5.20
